Time;durP1;ratioP1;P1;durP2;ratioP2;P2;SDS_P1;SDS_P2;PMS_P1;PMS_P2;Temp;Humidity;BMP_temperature;BMP_pressure;BME280_temperature;BME280_humidity;BME280_pressure;Samples;Min_cycle;Max_cycle;Signal;HPM_P1;HPM_P2
2022/11/20 00:01:33;;;;;;;14.98;11.93;;;2.20;99.90;;;;;;5013047;28;20218;-91
2022/11/20 00:04:02;;;;;;;17.05;12.43;;;2.30;99.90;;;;;;5013162;28;20212;-91
2022/11/20 00:06:30;;;;;;;15.95;12.50;;;2.30;99.90;;;;;;5013012;28;20267;-91
2022/11/20 00:09:01;;;;;;;15.88;13.13;;;2.30;99.90;;;;;;5012938;28;20227;-91
2022/11/20 00:11:31;;;;;;;18.02;13.23;;;2.30;99.90;;;;;;5012144;28;20278;-92
2022/11/20 00:14:01;;;;;;;16.85;12.63;;;2.30;99.90;;;;;;5010374;28;20303;-92
2022/11/20 00:16:32;;;;;;;15.10;12.10;;;2.30;99.90;;;;;;5010396;28;20221;-92
2022/11/20 00:19:00;;;;;;;12.00;10.75;;;2.40;99.90;;;;;;5010651;28;20211;-92
2022/11/20 00:21:29;;;;;;;13.07;11.38;;;2.40;99.90;;;;;;5010260;28;20223;-92
2022/11/20 00:24:00;;;;;;;12.83;10.50;;;2.30;99.90;;;;;;5010353;28;20245;-91
2022/11/20 00:26:29;;;;;;;17.65;12.90;;;2.30;99.90;;;;;;5011866;28;20215;-91
2022/11/20 00:29:01;;;;;;;15.77;11.68;;;2.30;99.90;;;;;;5014259;28;20314;-92
2022/11/20 00:31:32;;;;;;;12.55;11.05;;;2.30;99.90;;;;;;5014354;28;20213;-86
2022/11/20 00:34:01;;;;;;;15.38;11.57;;;2.20;99.90;;;;;;5014427;28;20215;-87
2022/11/20 00:36:32;;;;;;;12.50;11.00;;;2.20;99.90;;;;;;5014009;28;20219;-86
2022/11/20 00:39:02;;;;;;;17.33;12.55;;;2.20;99.90;;;;;;5013611;28;20218;-86
2022/11/20 00:41:31;;;;;;;13.13;11.43;;;2.30;99.90;;;;;;5014094;28;20222;-87
2022/11/20 00:43:59;;;;;;;14.38;11.95;;;2.20;99.90;;;;;;5013479;28;20238;-87
2022/11/20 00:46:28;;;;;;;13.57;11.40;;;2.20;99.90;;;;;;5013819;28;20229;-87
2022/11/20 00:48:57;;;;;;;12.07;10.63;;;2.20;99.90;;;;;;5013767;28;20223;-87
2022/11/20 00:51:27;;;;;;;12.48;11.23;;;2.20;99.90;;;;;;5013509;28;20218;-86
2022/11/20 00:53:57;;;;;;;15.82;11.55;;;2.30;99.90;;;;;;5013768;28;20238;-87
2022/11/20 00:56:27;;;;;;;13.48;11.85;;;2.20;99.90;;;;;;5013803;28;20243;-86
2022/11/20 00:58:55;;;;;;;11.60;9.73;;;2.20;99.90;;;;;;5013489;28;20223;-86
2022/11/20 01:01:25;;;;;;;15.23;11.10;;;2.10;99.90;;;;;;5013944;28;20211;-86
2022/11/20 01:03:57;;;;;;;12.90;11.10;;;2.00;99.90;;;;;;5013369;28;20230;-87
2022/11/20 01:06:33;;;;;;;17.23;10.43;;;2.10;99.90;;;;;;5013474;28;20203;-86
2022/11/20 01:09:03;;;;;;;12.97;10.07;;;2.10;99.90;;;;;;5013242;28;20225;-85
2022/11/20 01:11:35;;;;;;;12.38;10.50;;;2.10;99.90;;;;;;5013347;28;20211;-86
2022/11/20 01:14:08;;;;;;;13.40;10.57;;;2.10;99.90;;;;;;5013036;28;20219;-86
2022/11/20 01:16:38;;;;;;;12.33;10.87;;;2.10;99.90;;;;;;5013880;28;20218;-86
2022/11/20 01:19:08;;;;;;;11.97;9.83;;;2.10;99.90;;;;;;5013736;28;20290;-86
2022/11/20 01:21:38;;;;;;;15.73;11.65;;;2.10;99.90;;;;;;5013113;28;20219;-86
2022/11/20 01:24:08;;;;;;;11.65;10.45;;;2.10;99.90;;;;;;5013128;28;20211;-87
2022/11/20 01:26:40;;;;;;;10.77;9.67;;;2.00;99.90;;;;;;5013060;28;20207;-86
2022/11/20 01:29:12;;;;;;;12.48;10.85;;;1.90;99.90;;;;;;5013120;28;20222;-86
2022/11/20 01:31:40;;;;;;;12.13;10.60;;;1.90;99.90;;;;;;5012944;28;20204;-86
2022/11/20 01:34:11;;;;;;;11.50;10.15;;;1.90;99.90;;;;;;5012541;28;20211;-93
2022/11/20 01:36:41;;;;;;;14.77;10.90;;;2.00;99.90;;;;;;5012976;28;20222;-92
2022/11/20 01:39:13;;;;;;;13.48;11.07;;;2.00;99.90;;;;;;5012630;28;20207;-91
2022/11/20 01:44:51;;;;;;;11.70;10.45;;;2.00;99.90;;;;;;5012392;28;20217;-93
2022/11/20 01:47:26;;;;;;;13.13;11.05;;;2.00;99.90;;;;;;5012516;28;20229;-92
2022/11/20 01:49:59;;;;;;;12.67;10.63;;;2.00;99.90;;;;;;5012656;28;20230;-92
2022/11/20 01:52:34;;;;;;;12.88;11.25;;;2.00;99.90;;;;;;5012587;28;20258;-90
2022/11/20 01:55:07;;;;;;;13.02;10.65;;;2.00;99.90;;;;;;5012580;28;20226;-92
2022/11/20 01:57:39;;;;;;;13.80;11.05;;;2.10;99.90;;;;;;5014768;28;20215;-92
2022/11/20 02:00:10;;;;;;;16.17;12.00;;;2.10;99.90;;;;;;5014871;28;20214;-91
2022/11/20 02:02:41;;;;;;;13.85;11.50;;;2.10;99.90;;;;;;5014612;28;20228;-91
2022/11/20 02:05:21;;;;;;;12.77;11.40;;;2.10;99.90;;;;;;5014840;28;20214;-91
2022/11/20 02:07:49;;;;;;;15.47;11.50;;;2.10;99.90;;;;;;5014951;28;20203;-91
2022/11/20 02:10:18;;;;;;;12.80;11.13;;;2.10;99.90;;;;;;5014381;28;20262;-91
2022/11/20 02:15:34;;;;;;;14.82;12.00;;;2.10;99.90;;;;;;5014313;28;20211;-91
2022/11/20 02:18:02;;;;;;;18.05;13.25;;;2.00;99.90;;;;;;5013940;28;20207;-91
2022/11/20 02:20:31;;;;;;;16.80;12.45;;;2.10;99.90;;;;;;5014390;28;20207;-92
2022/11/20 02:23:03;;;;;;;13.57;11.80;;;2.00;99.90;;;;;;5016426;28;20237;-91
2022/11/20 02:25:36;;;;;;;16.20;12.48;;;2.00;99.90;;;;;;5015390;28;20207;-91
2022/11/20 02:28:04;;;;;;;13.87;11.17;;;2.00;99.90;;;;;;5014311;28;20199;-91
2022/11/20 02:30:33;;;;;;;14.88;12.88;;;2.00;99.90;;;;;;5013849;28;20238;-92
2022/11/20 02:33:01;;;;;;;16.63;13.10;;;2.00;99.90;;;;;;5014225;28;20227;-91
2022/11/20 02:35:42;;;;;;;14.07;11.83;;;2.00;99.90;;;;;;5014299;28;20293;-91
2022/11/20 02:38:11;;;;;;;12.80;11.48;;;2.00;99.90;;;;;;5014011;28;20207;-91
2022/11/20 02:40:41;;;;;;;17.80;13.73;;;2.00;99.90;;;;;;5013886;28;20207;-91
2022/11/20 02:43:10;;;;;;;16.98;13.63;;;2.00;99.90;;;;;;5013760;28;20238;-92
2022/11/20 02:45:38;;;;;;;15.50;11.97;;;1.90;99.90;;;;;;5014149;28;20213;-91
2022/11/20 02:48:08;;;;;;;13.37;11.97;;;1.90;99.90;;;;;;5013651;28;20213;-91
2022/11/20 02:50:39;;;;;;;17.83;12.45;;;2.00;99.90;;;;;;5013788;28;20238;-92
2022/11/20 02:53:08;;;;;;;16.70;12.27;;;2.00;99.90;;;;;;5013590;28;20227;-92
2022/11/20 02:55:39;;;;;;;13.10;11.80;;;1.90;99.90;;;;;;5013945;28;20236;-92
2022/11/20 02:58:09;;;;;;;14.63;11.75;;;1.90;99.90;;;;;;5013352;28;20207;-92
2022/11/20 03:00:37;;;;;;;12.87;11.37;;;1.90;99.90;;;;;;5013816;28;20211;-91
2022/11/20 03:03:06;;;;;;;12.52;10.57;;;1.90;99.90;;;;;;5013587;28;20438;-92
2022/11/20 03:05:34;;;;;;;16.58;12.07;;;1.90;99.90;;;;;;5013371;28;20217;-91
2022/11/20 03:08:02;;;;;;;11.73;10.52;;;1.90;99.90;;;;;;5012835;28;20207;-92
2022/11/20 03:10:30;;;;;;;15.77;12.40;;;1.90;99.90;;;;;;5013420;28;20223;-92
2022/11/20 03:12:58;;;;;;;14.65;11.93;;;1.90;99.90;;;;;;5013834;28;20233;-91
2022/11/20 03:15:28;;;;;;;19.38;13.50;;;1.90;99.90;;;;;;5013550;28;20211;-91
2022/11/20 03:17:57;;;;;;;12.33;11.03;;;1.90;99.90;;;;;;5013258;28;20199;-91
2022/11/20 03:20:26;;;;;;;12.67;10.87;;;1.80;99.90;;;;;;5013328;28;20214;-92
2022/11/20 03:22:55;;;;;;;16.90;11.97;;;1.80;99.90;;;;;;5012862;28;20226;-92
2022/11/20 03:25:23;;;;;;;18.57;13.33;;;1.70;99.90;;;;;;5013351;28;20207;-90
2022/11/20 03:27:52;;;;;;;17.02;12.68;;;1.70;99.90;;;;;;5013083;28;20215;-91
2022/11/20 03:30:20;;;;;;;14.27;12.23;;;1.60;99.90;;;;;;5013653;28;20211;-92
2022/11/20 03:32:55;;;;;;;16.73;11.67;;;1.60;99.90;;;;;;5017900;28;20255;-92
2022/11/20 03:35:23;;;;;;;16.35;12.82;;;1.70;99.90;;;;;;5013841;28;20210;-92
2022/11/20 03:37:52;;;;;;;20.53;13.73;;;1.70;99.90;;;;;;5013441;28;20211;-92
2022/11/20 03:40:20;;;;;;;17.13;13.10;;;1.70;99.90;;;;;;5013475;28;20199;-92
2022/11/20 03:42:48;;;;;;;13.17;11.93;;;1.70;99.90;;;;;;5013080;28;20233;-92
2022/11/20 03:45:17;;;;;;;20.85;13.43;;;1.70;99.90;;;;;;5013015;28;20203;-92
2022/11/20 03:47:46;;;;;;;16.65;13.50;;;1.60;99.90;;;;;;5013062;28;20246;-92
2022/11/20 03:50:19;;;;;;;15.10;12.27;;;1.60;99.90;;;;;;5013095;28;20233;-92
2022/11/20 03:52:47;;;;;;;17.33;12.43;;;1.60;99.90;;;;;;5012891;28;20311;-92
2022/11/20 03:55:16;;;;;;;17.23;13.23;;;1.60;99.90;;;;;;5018357;28;20290;-92
2022/11/20 03:57:44;;;;;;;13.00;11.70;;;1.60;99.90;;;;;;5012656;28;20203;-92
2022/11/20 04:00:13;;;;;;;13.07;11.27;;;1.60;99.90;;;;;;5013066;28;20211;-92
2022/11/20 04:02:42;;;;;;;15.07;13.00;;;1.60;99.90;;;;;;5016640;28;20226;-91
2022/11/20 04:05:10;;;;;;;14.18;12.07;;;1.60;99.90;;;;;;5017161;28;20213;-92
2022/11/20 04:07:39;;;;;;;12.30;10.80;;;1.60;99.90;;;;;;5016855;28;20203;-92
2022/11/20 04:10:08;;;;;;;16.13;12.67;;;1.70;99.90;;;;;;5016521;28;20207;-92
2022/11/20 04:12:37;;;;;;;17.00;12.52;;;1.60;99.90;;;;;;5016375;28;20242;-92
2022/11/20 04:15:06;;;;;;;13.52;11.85;;;1.70;99.90;;;;;;5016888;28;20199;-91
2022/11/20 04:17:34;;;;;;;17.13;12.35;;;1.60;99.90;;;;;;5016332;28;20218;-92
2022/11/20 04:20:02;;;;;;;19.95;14.65;;;1.60;99.90;;;;;;5016671;28;20211;-92
2022/11/20 04:22:30;;;;;;;15.43;13.50;;;1.60;99.90;;;;;;5016423;28;20219;-92
2022/11/20 04:25:00;;;;;;;20.02;13.95;;;1.70;99.90;;;;;;5016927;28;20213;-92
2022/11/20 04:27:28;;;;;;;13.43;11.57;;;1.70;99.90;;;;;;5016288;28;20211;-92
2022/11/20 04:29:57;;;;;;;16.88;12.48;;;1.70;99.90;;;;;;5015975;28;20294;-92
2022/11/20 04:32:25;;;;;;;17.35;13.60;;;1.60;99.90;;;;;;5016160;28;20237;-91
2022/11/20 04:34:53;;;;;;;13.63;12.20;;;1.60;99.90;;;;;;5016274;28;20210;-92
2022/11/20 04:37:22;;;;;;;14.23;12.32;;;1.60;99.90;;;;;;5018315;28;20213;-92
2022/11/20 04:39:50;;;;;;;17.33;12.88;;;1.60;99.90;;;;;;5018163;28;20218;-92
2022/11/20 04:42:32;;;;;;;16.67;12.93;;;1.70;99.90;;;;;;5016352;28;20237;-92
2022/11/20 04:45:00;;;;;;;15.80;12.50;;;1.70;99.90;;;;;;5016236;28;20211;-92
2022/11/20 04:47:28;;;;;;;20.73;14.98;;;1.70;99.90;;;;;;5015919;28;20246;-92
2022/11/20 04:49:56;;;;;;;17.17;13.77;;;1.70;99.90;;;;;;5016018;28;20214;-91
2022/11/20 04:52:24;;;;;;;15.18;12.68;;;1.80;99.90;;;;;;5015737;28;20234;-92
2022/11/20 04:54:58;;;;;;;17.27;14.15;;;1.80;99.90;;;;;;5016174;28;20211;-90
2022/11/20 04:57:27;;;;;;;13.70;11.50;;;1.80;99.90;;;;;;5015803;28;20207;-91
2022/11/20 04:59:56;;;;;;;15.35;12.55;;;1.80;99.90;;;;;;5015936;28;20206;-92
2022/11/20 05:02:24;;;;;;;14.02;12.48;;;1.80;99.90;;;;;;5015912;28;20225;-91
2022/11/20 05:04:52;;;;;;;14.70;12.77;;;1.90;99.90;;;;;;5015954;28;20222;-92
2022/11/20 05:07:20;;;;;;;16.27;13.45;;;1.90;99.90;;;;;;5015584;28;20211;-91
2022/11/20 05:09:49;;;;;;;15.60;13.10;;;1.90;99.90;;;;;;5015573;28;20215;-94
2022/11/20 05:12:17;;;;;;;15.80;13.88;;;1.90;99.90;;;;;;5014504;28;20234;-92
2022/11/20 05:14:46;;;;;;;21.75;14.30;;;2.00;99.90;;;;;;5015368;28;20207;-91
2022/11/20 05:17:15;;;;;;;17.52;14.15;;;2.00;99.90;;;;;;5015734;28;20211;-92
2022/11/20 05:19:43;;;;;;;15.70;13.02;;;2.00;99.90;;;;;;5015364;28;20203;-91
2022/11/20 05:22:14;;;;;;;17.48;14.13;;;2.00;99.90;;;;;;5015288;28;20227;-92
2022/11/20 05:24:42;;;;;;;14.50;12.90;;;2.00;99.90;;;;;;5015401;28;20211;-92
2022/11/20 05:27:10;;;;;;;13.93;12.23;;;2.10;99.90;;;;;;5015550;28;20207;-92
2022/11/20 05:29:39;;;;;;;18.98;12.90;;;2.10;99.90;;;;;;5015364;28;20266;-92
2022/11/20 05:32:09;;;;;;;16.33;12.27;;;2.10;99.90;;;;;;5015119;28;20233;-94
2022/11/20 05:34:37;;;;;;;13.65;12.27;;;2.10;99.90;;;;;;5015074;28;20207;-92
2022/11/20 05:37:06;;;;;;;14.43;12.10;;;2.10;99.90;;;;;;5015008;28;20214;-91
2022/11/20 05:39:34;;;;;;;17.52;12.68;;;2.10;99.90;;;;;;5015462;28;20205;-93
2022/11/20 05:44:47;;;;;;;14.27;12.10;;;2.20;99.90;;;;;;5017042;28;20206;-91
2022/11/20 05:47:17;;;;;;;17.00;13.30;;;2.20;99.90;;;;;;5014784;28;20294;-92
2022/11/20 05:49:45;;;;;;;13.98;12.27;;;2.20;99.90;;;;;;5014626;28;20215;-92
2022/11/20 05:52:14;;;;;;;13.35;11.88;;;2.20;99.90;;;;;;5015219;28;20230;-91
2022/11/20 05:54:42;;;;;;;16.15;12.82;;;2.20;99.90;;;;;;5015108;28;20199;-91
2022/11/20 05:57:10;;;;;;;13.35;11.95;;;2.20;99.90;;;;;;5014901;28;20203;-92
2022/11/20 05:59:39;;;;;;;15.10;12.75;;;2.20;99.90;;;;;;5014933;28;20298;-91
2022/11/20 06:02:07;;;;;;;14.77;13.10;;;2.10;99.90;;;;;;5014689;28;20230;-91
2022/11/20 06:04:36;;;;;;;14.27;12.77;;;2.10;99.90;;;;;;5014578;28;20211;-91
2022/11/20 06:07:06;;;;;;;14.98;12.40;;;2.20;99.90;;;;;;5014162;28;20211;-91
2022/11/20 06:09:34;;;;;;;19.23;13.55;;;2.20;99.90;;;;;;5014440;28;20211;-93
2022/11/20 06:12:03;;;;;;;13.80;12.40;;;2.20;99.90;;;;;;5014410;28;20230;-92
2022/11/20 06:14:31;;;;;;;15.40;13.13;;;2.20;99.90;;;;;;5014291;28;20211;-91
2022/11/20 06:16:59;;;;;;;13.70;12.30;;;2.20;99.90;;;;;;5014060;28;20218;-92
2022/11/20 06:19:27;;;;;;;16.70;13.63;;;2.20;99.90;;;;;;5014963;28;20210;-91
2022/11/20 06:21:57;;;;;;;17.63;13.40;;;2.20;99.90;;;;;;5014334;28;20231;-92
2022/11/20 06:24:26;;;;;;;20.57;13.30;;;2.10;99.90;;;;;;5013815;28;20211;-92
2022/11/20 06:26:54;;;;;;;16.20;13.38;;;2.10;99.90;;;;;;5014240;28;20218;-91
2022/11/20 06:29:22;;;;;;;19.63;14.48;;;2.10;99.90;;;;;;5014100;28;20207;-92
2022/11/20 06:31:51;;;;;;;19.17;13.18;;;2.10;99.90;;;;;;5014321;28;20207;-92
2022/11/20 06:34:19;;;;;;;14.30;12.18;;;2.10;99.90;;;;;;5014268;28;20203;-93
2022/11/20 06:36:47;;;;;;;17.87;12.77;;;2.10;99.90;;;;;;5013755;28;20210;-93
2022/11/20 06:39:17;;;;;;;15.57;12.68;;;2.10;99.90;;;;;;5013826;28;20218;-92
2022/11/20 06:41:45;;;;;;;14.90;12.55;;;2.10;99.90;;;;;;5013742;28;20211;-92
2022/11/20 06:44:13;;;;;;;16.98;13.70;;;2.00;99.90;;;;;;5014115;28;20203;-92
2022/11/20 06:46:41;;;;;;;18.88;14.45;;;2.10;99.90;;;;;;5013842;28;20222;-92
2022/11/20 06:49:09;;;;;;;19.92;15.13;;;2.10;99.90;;;;;;5014534;28;20210;-92
2022/11/20 06:51:38;;;;;;;19.10;14.15;;;2.10;99.90;;;;;;5015853;28;20211;-92
2022/11/20 06:54:06;;;;;;;15.70;13.30;;;2.10;99.90;;;;;;5013573;28;20249;-92
2022/11/20 06:56:36;;;;;;;15.15;13.55;;;2.00;99.90;;;;;;5013509;28;20215;-92
2022/11/20 06:59:06;;;;;;;16.27;12.93;;;2.00;99.90;;;;;;5013515;28;20219;-92
2022/11/20 07:01:34;;;;;;;17.20;14.27;;;2.10;99.90;;;;;;5013686;28;20238;-93
2022/11/20 07:04:03;;;;;;;17.25;14.20;;;2.10;99.90;;;;;;5013545;28;20207;-92
2022/11/20 07:06:32;;;;;;;16.50;13.55;;;2.00;99.90;;;;;;5013394;28;20294;-92
2022/11/20 07:09:01;;;;;;;21.30;14.63;;;2.00;99.90;;;;;;5013505;28;20214;-92
2022/11/20 07:11:29;;;;;;;15.93;14.30;;;2.10;99.90;;;;;;5013388;28;20211;-92
2022/11/20 07:13:59;;;;;;;18.08;14.68;;;2.10;99.90;;;;;;5013138;28;20223;-92
2022/11/20 07:16:28;;;;;;;18.02;15.10;;;2.10;99.90;;;;;;5013197;28;20219;-92
2022/11/20 07:18:56;;;;;;;18.63;14.50;;;2.10;99.90;;;;;;5013368;28;20212;-92
2022/11/20 07:21:24;;;;;;;16.35;13.93;;;2.10;99.90;;;;;;5013207;28;20241;-92
2022/11/20 07:23:52;;;;;;;18.98;14.98;;;2.10;99.90;;;;;;5013300;28;20235;-93
2022/11/20 07:26:21;;;;;;;20.27;14.30;;;2.10;99.90;;;;;;5013011;28;20216;-93
2022/11/20 07:28:49;;;;;;;18.63;15.25;;;2.20;99.90;;;;;;5013083;28;20218;-92
2022/11/20 07:31:19;;;;;;;16.15;14.23;;;2.20;99.90;;;;;;5013138;28;20230;-92
2022/11/20 07:33:47;;;;;;;16.48;13.43;;;2.20;99.90;;;;;;5012756;28;20231;-92
2022/11/20 07:36:15;;;;;;;15.82;14.23;;;2.20;99.90;;;;;;5012363;28;20211;-92
2022/11/20 07:38:43;;;;;;;17.05;14.80;;;2.20;99.90;;;;;;5013214;28;20222;-92
2022/11/20 07:41:12;;;;;;;19.63;14.70;;;2.30;99.90;;;;;;5013104;28;20286;-93
2022/11/20 07:43:40;;;;;;;16.20;13.85;;;2.30;99.90;;;;;;5013259;28;20230;-92
2022/11/20 07:46:08;;;;;;;17.10;14.85;;;2.30;99.90;;;;;;5012884;28;20211;-92
2022/11/20 07:48:38;;;;;;;16.42;14.02;;;2.30;99.90;;;;;;5012836;28;20215;-93
2022/11/20 07:51:07;;;;;;;17.90;14.23;;;2.30;99.90;;;;;;5013268;28;20207;-92
2022/11/20 07:53:35;;;;;;;18.67;14.75;;;2.30;99.90;;;;;;5012898;28;20223;-92
2022/11/20 07:56:04;;;;;;;17.17;13.68;;;2.40;99.90;;;;;;5014506;28;20207;-91
2022/11/20 07:58:34;;;;;;;21.95;15.05;;;2.40;99.90;;;;;;5015809;28;20213;-92
2022/11/20 08:01:06;;;;;;;15.90;14.20;;;2.40;99.90;;;;;;5014121;28;20223;-92
2022/11/20 08:03:37;;;;;;;14.90;13.30;;;2.40;99.90;;;;;;5012621;28;20233;-92
2022/11/20 08:06:08;;;;;;;15.55;13.73;;;2.40;99.90;;;;;;5012941;28;20266;-91
2022/11/20 08:08:38;;;;;;;21.65;16.38;;;2.40;99.90;;;;;;5012797;28;20202;-92
2022/11/20 08:16:37;;;;;;;19.80;14.88;;;2.60;99.90;;;;;;5012577;28;20230;-92
2022/11/20 08:19:06;;;;;;;17.20;14.80;;;2.50;99.90;;;;;;5016274;28;20206;-92
2022/11/20 08:21:36;;;;;;;18.67;15.23;;;2.60;99.90;;;;;;5013652;28;20207;-91
2022/11/20 08:24:06;;;;;;;20.13;14.85;;;2.60;99.90;;;;;;5012751;28;20259;-92
2022/11/20 08:26:36;;;;;;;19.20;15.57;;;2.60;99.90;;;;;;5012805;28;20211;-92
2022/11/20 08:29:05;;;;;;;15.63;14.00;;;2.60;99.90;;;;;;5012577;28;20213;-92
2022/11/20 08:31:34;;;;;;;22.30;16.52;;;2.70;99.90;;;;;;5012974;28;20226;-92
2022/11/20 08:34:02;;;;;;;16.65;14.82;;;2.70;99.90;;;;;;5012387;28;20238;-92
2022/11/20 08:36:37;;;;;;;17.88;14.85;;;2.70;99.90;;;;;;5012564;28;20258;-92
2022/11/20 08:39:06;;;;;;;23.55;16.20;;;2.70;99.90;;;;;;5012614;28;20217;-92
2022/11/20 08:41:36;;;;;;;15.57;13.93;;;2.70;99.90;;;;;;5012512;28;20211;-92
2022/11/20 08:44:06;;;;;;;16.90;15.07;;;2.90;99.90;;;;;;5012565;28;20214;-92
2022/11/20 08:46:36;;;;;;;17.02;14.85;;;3.00;99.90;;;;;;5012539;28;20214;-92
2022/11/20 08:49:05;;;;;;;19.58;15.27;;;3.00;99.90;;;;;;5016540;28;20203;-92
2022/11/20 08:51:34;;;;;;;22.88;16.17;;;3.00;99.90;;;;;;5015985;28;20245;-92
2022/11/20 08:54:04;;;;;;;17.20;15.07;;;3.00;99.90;;;;;;5015830;28;20238;-92
2022/11/20 08:56:33;;;;;;;17.02;14.85;;;3.00;99.90;;;;;;5015960;28;20207;-92
2022/11/20 08:59:01;;;;;;;19.08;16.05;;;3.00;99.90;;;;;;5016079;28;20207;-92
2022/11/20 09:01:49;;;;;;;16.38;13.82;;;2.90;99.90;;;;;;5015620;28;20234;-92
2022/11/20 09:04:18;;;;;;;17.35;15.50;;;2.90;99.90;;;;;;5015603;28;20207;-92
2022/11/20 09:06:50;;;;;;;18.27;15.05;;;2.80;99.90;;;;;;5015497;28;20226;-92
2022/11/20 09:09:21;;;;;;;16.85;14.45;;;2.80;99.90;;;;;;5015857;28;20218;-92
2022/11/20 09:11:50;;;;;;;20.88;14.88;;;2.80;99.90;;;;;;5019608;28;20242;-92
2022/11/20 09:14:19;;;;;;;33.00;16.42;;;2.90;99.90;;;;;;5016432;28;20235;-92
2022/11/20 09:16:47;;;;;;;19.65;15.45;;;3.00;99.90;;;;;;5015576;28;20207;-92
2022/11/20 09:19:15;;;;;;;24.95;15.98;;;3.00;99.90;;;;;;5015795;28;20293;-92
2022/11/20 09:22:04;;;;;;;17.67;15.70;;;3.00;99.90;;;;;;5015182;28;20219;-92
2022/11/20 09:24:34;;;;;;;21.67;16.77;;;3.00;99.90;;;;;;5015273;28;20263;-92
2022/11/20 09:27:05;;;;;;;26.05;17.38;;;3.00;99.90;;;;;;5015590;28;20211;-91
2022/11/20 09:29:33;;;;;;;16.85;14.77;;;3.00;99.90;;;;;;5016982;28;20357;-92
2022/11/20 09:32:02;;;;;;;21.80;15.23;;;3.00;99.90;;;;;;5019295;28;20223;-92
2022/11/20 09:34:30;;;;;;;15.77;14.18;;;3.00;99.90;;;;;;5020539;28;20215;-92
2022/11/20 09:36:58;;;;;;;16.45;14.70;;;2.90;99.90;;;;;;5019289;28;20215;-92
2022/11/20 09:39:38;;;;;;;15.77;14.05;;;3.00;99.90;;;;;;5020483;28;20210;-92
2022/11/20 09:42:33;;;;;;;20.45;15.23;;;2.90;99.90;;;;;;5020310;28;20230;-92
2022/11/20 09:45:20;;;;;;;20.90;16.23;;;2.90;99.90;;;;;;5017759;28;20229;-91
2022/11/20 09:48:04;;;;;;;19.80;16.63;;;3.00;99.90;;;;;;5019241;28;20225;-92
2022/11/20 09:50:36;;;;;;;17.48;15.57;;;3.00;99.90;;;;;;5021248;28;20207;-92
2022/11/20 09:53:24;;;;;;;21.02;17.48;;;2.90;99.90;;;;;;5018914;28;20231;-92
2022/11/20 09:55:55;;;;;;;19.13;15.75;;;2.90;99.90;;;;;;5015236;28;20258;-92
2022/11/20 09:58:31;;;;;;;19.48;15.68;;;2.90;99.90;;;;;;5014568;28;20215;-92
2022/11/20 10:01:06;;;;;;;18.48;16.40;;;2.90;99.90;;;;;;5015307;28;20199;-92
2022/11/20 10:03:42;;;;;;;20.52;16.17;;;2.90;99.90;;;;;;5015401;28;20237;-92
2022/11/20 10:06:16;;;;;;;20.40;16.42;;;2.90;99.90;;;;;;5015291;28;20211;-92
2022/11/20 10:08:52;;;;;;;18.67;16.67;;;2.90;99.90;;;;;;5015011;28;20218;-92
2022/11/20 10:11:32;;;;;;;25.90;17.48;;;2.90;99.90;;;;;;5014897;28;20293;-91
2022/11/20 10:14:17;;;;;;;18.40;16.48;;;2.90;99.90;;;;;;5014520;28;20233;-92
2022/11/20 10:16:57;;;;;;;19.27;16.02;;;2.80;99.90;;;;;;5014191;28;20206;-92
2022/11/20 10:19:48;;;;;;;21.75;18.00;;;2.90;99.90;;;;;;5014941;28;20207;-92
2022/11/20 10:22:28;;;;;;;24.23;16.88;;;3.00;99.90;;;;;;5017502;28;20306;-93
2022/11/20 10:25:02;;;;;;;29.55;16.88;;;3.00;99.90;;;;;;5014417;28;20206;-92
2022/11/20 10:27:57;;;;;;;22.20;17.15;;;3.00;99.90;;;;;;5014384;28;20211;-92
2022/11/20 10:30:26;;;;;;;20.17;15.82;;;3.10;99.90;;;;;;5015225;28;20211;-92
2022/11/20 10:32:59;;;;;;;22.83;17.63;;;3.20;99.90;;;;;;5014507;28;20227;-92
2022/11/20 10:35:34;;;;;;;21.80;16.80;;;3.20;99.90;;;;;;5013945;28;20229;-92
2022/11/20 10:38:06;;;;;;;25.45;15.98;;;3.30;99.90;;;;;;5013835;28;20215;-92
2022/11/20 10:40:39;;;;;;;22.05;17.42;;;3.30;99.90;;;;;;5014041;28;20223;-92
2022/11/20 10:43:15;;;;;;;21.55;16.63;;;3.30;99.90;;;;;;5013836;28;20228;-92
2022/11/20 10:45:55;;;;;;;18.50;16.30;;;3.40;99.90;;;;;;5014525;28;20202;-92
2022/11/20 10:48:25;;;;;;;21.23;16.85;;;3.50;99.90;;;;;;5013737;28;20206;-92
2022/11/20 10:51:11;;;;;;;18.90;16.90;;;3.60;99.90;;;;;;5013731;28;20302;-92
2022/11/20 10:53:52;;;;;;;24.23;18.25;;;3.70;99.90;;;;;;5013685;28;20227;-92
2022/11/20 10:56:26;;;;;;;19.10;16.52;;;3.70;99.90;;;;;;5013705;28;20230;-92
2022/11/20 10:59:05;;;;;;;21.08;17.63;;;3.60;99.90;;;;;;5013724;28;20249;-92
2022/11/20 11:01:41;;;;;;;23.25;17.42;;;3.60;99.90;;;;;;5013775;28;20227;-92
2022/11/20 11:04:27;;;;;;;20.30;16.20;;;3.80;99.90;;;;;;5013637;28;20219;-92
2022/11/20 11:07:02;;;;;;;25.23;17.60;;;3.80;99.90;;;;;;5013331;28;20214;-92
2022/11/20 11:09:35;;;;;;;19.73;16.80;;;4.00;99.90;;;;;;5013662;28;20221;-91
2022/11/20 11:12:08;;;;;;;20.85;15.93;;;4.10;99.90;;;;;;5012754;28;20287;-92
2022/11/20 11:14:52;;;;;;;17.65;15.80;;;4.10;99.90;;;;;;5013757;28;20211;-93
2022/11/20 11:17:27;;;;;;;20.77;16.23;;;4.10;99.90;;;;;;5012862;28;20207;-92
2022/11/20 11:20:00;;;;;;;20.70;16.60;;;4.10;99.90;;;;;;5013359;28;20203;-92
2022/11/20 11:22:30;;;;;;;17.48;15.52;;;4.00;99.90;;;;;;5013165;28;20231;-92
2022/11/20 11:24:58;;;;;;;22.63;17.10;;;4.00;99.90;;;;;;5013612;28;20211;-92
2022/11/20 11:27:27;;;;;;;23.85;16.48;;;4.10;99.90;;;;;;5013081;28;20215;-92
2022/11/20 11:30:15;;;;;;;23.00;15.93;;;4.10;99.90;;;;;;5013188;28;20214;-92
2022/11/20 11:32:43;;;;;;;20.20;17.10;;;4.20;99.90;;;;;;5013648;28;20254;-92
2022/11/20 11:35:24;;;;;;;25.02;16.15;;;4.10;99.90;;;;;;5012786;28;20218;-92
2022/11/20 11:37:55;;;;;;;28.77;17.73;;;4.10;99.90;;;;;;5013003;28;20238;-92
2022/11/20 11:40:26;;;;;;;17.65;15.15;;;4.10;99.90;;;;;;5013259;28;20221;-92
2022/11/20 11:42:58;;;;;;;22.20;17.60;;;4.10;99.90;;;;;;5013335;28;20285;-92
2022/11/20 11:45:28;;;;;;;19.73;17.27;;;4.20;99.90;;;;;;5012901;28;20207;-92
2022/11/20 11:47:59;;;;;;;18.98;15.93;;;4.20;99.90;;;;;;5012610;28;20222;-92
2022/11/20 11:50:28;;;;;;;22.92;17.77;;;4.30;99.90;;;;;;5013180;28;20214;-92
2022/11/20 11:53:09;;;;;;;17.60;15.77;;;4.40;99.90;;;;;;5012925;28;20235;-92
2022/11/20 11:55:43;;;;;;;23.13;18.50;;;4.50;99.90;;;;;;5012806;28;20230;-93
2022/11/20 11:58:19;;;;;;;18.85;16.67;;;4.70;99.90;;;;;;5012464;28;20214;-92
2022/11/20 12:00:58;;;;;;;22.70;17.48;;;4.90;99.90;;;;;;5012754;28;20215;-92
2022/11/20 12:03:30;;;;;;;21.70;17.05;;;5.30;99.90;;;;;;5012799;28;20231;-92
2022/11/20 12:06:02;;;;;;;24.77;17.88;;;5.90;99.90;;;;;;5013343;28;20214;-92
2022/11/20 12:08:40;;;;;;;23.02;17.20;;;6.40;99.90;;;;;;5012382;28;20215;-92
2022/11/20 12:11:19;;;;;;;18.70;16.75;;;6.80;99.90;;;;;;5012784;28;20211;-92
2022/11/20 12:13:54;;;;;;;18.33;16.30;;;7.30;99.90;;;;;;5012702;28;20235;-92
2022/11/20 12:16:24;;;;;;;17.15;15.30;;;7.90;99.90;;;;;;5012144;28;20233;-92
2022/11/20 12:18:53;;;;;;;18.25;16.23;;;8.10;99.90;;;;;;5013039;28;20211;-92
2022/11/20 12:21:32;;;;;;;17.45;14.80;;;8.30;99.90;;;;;;5012767;28;20238;-92
2022/11/20 12:24:26;;;;;;;18.75;15.30;;;8.70;99.90;;;;;;5016274;28;20232;-92
2022/11/20 12:27:10;;;;;;;22.13;16.50;;;8.70;99.90;;;;;;5016204;28;20207;-92
2022/11/20 12:29:50;;;;;;;15.93;14.32;;;8.70;99.90;;;;;;5016855;28;20210;-91
2022/11/20 12:32:41;;;;;;;22.27;16.23;;;8.90;99.90;;;;;;5016272;28;20318;-87
2022/11/20 12:35:25;;;;;;;21.02;15.13;;;9.20;99.90;;;;;;5016347;28;20215;-87
2022/11/20 12:38:09;;;;;;;38.28;13.93;;;9.20;99.90;;;;;;5016214;28;20221;-87
2022/11/20 12:40:45;;;;;;;19.13;15.70;;;9.70;99.90;;;;;;5016384;28;20221;-87
2022/11/20 12:46:17;;;;;;;30.35;15.77;;;9.80;99.90;;;;;;5016552;28;20204;-87
2022/11/20 12:49:23;;;;;;;16.88;15.07;;;9.70;99.90;;;;;;5015488;28;20202;-87
2022/11/20 12:52:26;;;;;;;16.70;14.93;;;9.70;99.90;;;;;;5015942;28;20276;-88
2022/11/20 12:55:24;;;;;;;16.00;14.32;;;9.70;99.90;;;;;;5003255;28;20207;-88
2022/11/20 12:57:58;;;;;;;17.67;14.57;;;9.90;99.90;;;;;;5007675;28;20226;-88
2022/11/20 13:00:26;;;;;;;18.77;14.52;;;10.00;99.90;;;;;;5016172;28;20219;-88
2022/11/20 13:03:24;;;;;;;19.33;15.57;;;10.00;99.90;;;;;;5015850;28;20234;-88
2022/11/20 13:06:00;;;;;;;21.77;16.48;;;10.10;99.90;;;;;;5015729;28;20199;-86
2022/11/20 13:08:33;;;;;;;16.27;14.18;;;10.40;99.90;;;;;;5015518;28;20210;-87
2022/11/20 13:11:08;;;;;;;14.63;13.13;;;10.50;99.90;;;;;;5015848;28;20217;-85
2022/11/20 13:13:45;;;;;;;18.08;16.00;;;10.30;99.90;;;;;;5016083;28;20226;-86
2022/11/20 13:16:20;;;;;;;17.45;14.77;;;10.10;99.90;;;;;;5014827;28;20229;-85